createdAt,value
2022-09-10T07:20:48.774Z,1.42
2022-09-10T07:25:52.482Z,1.40
2022-09-10T07:31:14.585Z,1.55
2022-09-10T07:36:20.480Z,1.15
2022-09-10T07:41:47.385Z,1.55
2022-09-10T07:46:53.464Z,1.40
2022-09-10T07:52:01.270Z,1.33
2022-09-10T07:57:34.733Z,1.40
2022-09-10T08:02:42.794Z,1.75
2022-09-10T08:07:54.468Z,1.40
2022-09-10T08:13:01.022Z,1.50
2022-09-10T08:18:06.271Z,1.50
2022-09-10T08:23:32.837Z,2.80
2022-09-10T08:28:37.694Z,1.30
2022-09-10T08:34:02.427Z,1.17
2022-09-10T08:39:28.236Z,1.60
2022-09-10T08:44:38.369Z,2.30
2022-09-10T08:49:46.268Z,1.98
2022-09-10T08:55:26.700Z,1.50
2022-09-10T09:00:40.785Z,1.73
2022-09-10T09:05:52.081Z,1.88
2022-09-10T09:11:08.028Z,1.40
2022-09-10T09:16:41.344Z,1.83
2022-09-10T09:21:53.203Z,2.55
2022-09-10T09:27:10.030Z,1.17
2022-09-10T09:32:19.920Z,1.60
2022-09-10T09:37:29.425Z,1.60
2022-09-10T09:42:45.478Z,2.15
2022-09-10T09:47:50.833Z,1.90
2022-09-10T09:52:56.516Z,1.42
2022-09-10T09:58:40.199Z,1.05
2022-09-10T10:03:58.610Z,2.25
2022-09-10T10:09:07.646Z,1.00
2022-09-10T10:14:26.401Z,1.30
2022-09-10T10:19:34.953Z,0.90
2022-09-10T10:24:38.540Z,1.50
2022-09-10T10:29:56.445Z,1.33
2022-09-10T10:35:23.401Z,1.63
2022-09-10T10:40:33.947Z,1.25
2022-09-10T10:45:52.817Z,1.00
2022-09-10T10:51:04.701Z,1.35
2022-09-10T10:56:18.782Z,1.20
2022-09-10T11:01:27.799Z,1.00
2022-09-10T11:06:38.356Z,2.30
2022-09-10T11:11:53.478Z,1.15
2022-09-10T11:17:04.711Z,1.20
2022-09-10T11:22:15.207Z,1.20
2022-09-10T11:27:28.649Z,1.20
2022-09-10T11:32:40.022Z,1.25
2022-09-10T11:37:52.882Z,1.08
2022-09-10T11:43:02.152Z,0.90
2022-09-10T11:48:17.396Z,0.95
2022-09-10T11:53:25.795Z,0.98
2022-09-10T11:58:43.288Z,0.95
2022-09-10T12:04:12.657Z,1.30
2022-09-10T12:09:23.508Z,1.10
2022-09-10T12:14:29.711Z,0.80
2022-09-10T12:19:38.507Z,1.17
2022-09-10T12:24:52.562Z,0.90
2022-09-10T12:30:33.731Z,1.00
2022-09-10T12:35:45.761Z,1.65
2022-09-10T12:40:49.625Z,18.33
2022-09-10T12:46:05.046Z,4.43
2022-09-10T12:51:23.585Z,2.38
2022-09-10T12:56:59.527Z,2.35
2022-09-10T13:02:03.437Z,9.60
2022-09-10T13:07:23.720Z,1.70
2022-09-10T13:12:28.625Z,3.60
2022-09-10T13:17:41.205Z,0.60
2022-09-10T13:23:05.959Z,1.55
2022-09-10T13:28:52.987Z,1.02
2022-09-10T13:34:31.221Z,0.85
2022-09-10T13:40:00.129Z,0.80
2022-09-10T13:45:23.334Z,0.95
2022-09-10T13:50:33.754Z,0.90
2022-09-10T13:55:51.586Z,1.25
2022-09-10T14:00:57.740Z,1.67
2022-09-10T14:06:04.044Z,1.13
2022-09-10T14:11:17.004Z,1.20
2022-09-10T14:16:29.508Z,1.20
2022-09-10T14:21:34.116Z,1.50
2022-09-10T14:31:47.083Z,1.08
2022-09-10T14:36:50.632Z,1.30
2022-09-10T14:47:35.740Z,1.20
2022-09-10T14:52:39.486Z,1.23
2022-09-10T14:57:42.940Z,2.13
2022-09-10T15:02:51.540Z,1.70
2022-09-10T15:07:55.090Z,1.00
2022-09-10T15:12:58.819Z,1.25
2022-09-10T15:18:18.296Z,1.20
2022-09-10T15:23:23.422Z,1.27
2022-09-10T15:28:27.031Z,1.33
2022-09-10T15:33:30.567Z,1.00
2022-09-10T15:38:35.675Z,1.42
2022-09-10T15:43:46.972Z,1.00
2022-09-10T15:48:59.911Z,1.35
2022-09-10T15:54:10.814Z,1.33
2022-09-10T15:59:16.562Z,1.40
2022-09-10T16:04:20.290Z,2.17
2022-09-10T16:09:25.209Z,1.40
2022-09-10T16:19:56.272Z,1.08
2022-09-10T16:25:01.183Z,1.80
2022-09-10T16:30:05.305Z,2.90
2022-09-10T16:35:09.811Z,2.30
2022-09-10T16:40:19.184Z,3.75
2022-09-10T16:45:27.762Z,2.78
2022-09-10T16:50:31.658Z,2.30
2022-09-10T16:55:36.783Z,2.00
2022-09-10T17:00:42.789Z,1.80
2022-09-10T17:05:46.729Z,1.90
2022-09-10T17:10:51.880Z,2.38
2022-09-10T17:16:15.627Z,1.35
2022-09-10T17:21:19.262Z,1.88
2022-09-10T17:26:27.020Z,1.65
2022-09-10T17:31:31.337Z,2.05
2022-09-10T17:36:36.686Z,1.50
2022-09-10T17:41:43.011Z,1.88
2022-09-10T17:46:46.510Z,1.95
2022-09-10T17:51:50.979Z,2.10
2022-09-10T17:56:56.004Z,2.33
2022-09-10T18:02:02.413Z,1.70
2022-09-10T18:07:06.292Z,1.65
2022-09-10T18:12:11.312Z,5.83
2022-09-10T18:17:14.811Z,1.98
2022-09-10T18:22:18.306Z,13.38
2022-09-10T18:27:26.471Z,2.50
2022-09-10T18:32:32.340Z,1.95
2022-09-10T18:37:36.182Z,2.40
2022-09-10T18:42:46.618Z,2.80
2022-09-10T18:47:52.793Z,4.30
2022-09-10T18:52:56.259Z,2.63
2022-09-10T18:58:01.735Z,5.70
2022-09-10T19:03:14.901Z,5.55
2022-09-10T19:08:19.238Z,4.72
2022-09-10T19:13:25.163Z,5.20
2022-09-10T19:18:29.263Z,7.45
2022-09-10T19:23:35.652Z,15.30
2022-09-10T19:34:04.962Z,6.30
2022-09-10T19:39:12.655Z,5.57
2022-09-10T19:49:39.165Z,8.32
2022-09-10T19:54:45.424Z,8.80
2022-09-10T20:00:00.860Z,7.80
2022-09-10T20:05:08.230Z,5.40
2022-09-10T20:15:51.325Z,5.35
2022-09-10T20:20:59.671Z,4.30
2022-09-10T20:26:26.593Z,4.47
2022-09-10T20:31:47.061Z,5.20
2022-09-10T20:36:54.882Z,4.60
2022-09-10T20:42:05.165Z,5.53
2022-09-10T20:47:10.429Z,4.80
2022-09-10T20:52:14.257Z,4.57
2022-09-10T20:57:25.491Z,4.70
2022-09-10T21:02:33.608Z,5.32
2022-09-10T21:07:50.733Z,4.70
2022-09-10T21:13:42.360Z,5.00
2022-09-10T21:25:33.638Z,5.22
2022-09-10T21:32:24.258Z,5.43
2022-09-10T21:49:42.794Z,11.27
2022-09-10T22:00:34.342Z,11.38
2022-09-10T22:17:26.970Z,9.00
2022-09-10T22:29:05.404Z,18.08
2022-09-10T22:33:46.265Z,24.38
2022-09-10T22:38:51.257Z,20.92
2022-09-10T22:44:03.151Z,14.95
2022-09-10T22:49:21.823Z,11.05
2022-09-10T22:54:39.794Z,8.82
2022-09-10T22:59:47.239Z,7.90
2022-09-10T23:04:51.127Z,7.50
2022-09-10T23:09:55.537Z,9.77
2022-09-10T23:15:02.078Z,8.65
2022-09-10T23:20:10.464Z,9.43
2022-09-10T23:25:38.833Z,12.23
2022-09-10T23:30:45.728Z,11.27
2022-09-10T23:35:51.339Z,12.82
2022-09-10T23:53:37.555Z,12.40
2022-09-10T23:59:16.103Z,11.45
